Time;durP1;ratioP1;P1;durP2;ratioP2;P2;SDS_P1;SDS_P2;PMS_P1;PMS_P2;Temp;Humidity;BMP_temperature;BMP_pressure;BME280_temperature;BME280_humidity;BME280_pressure;Samples;Min_cycle;Max_cycle;Signal;HPM_P1;HPM_P2
2021/08/23 00:00:37;;;;;;;7.40;6.20;;;15.80;99.90;;;;;;5063026;28;20056;-66
2021/08/23 00:03:03;;;;;;;10.73;6.70;;;15.80;99.90;;;;;;5070486;28;20123;-65
2021/08/23 00:05:29;;;;;;;11.02;7.15;;;15.80;99.90;;;;;;5082350;28;20048;-66
2021/08/23 00:07:55;;;;;;;10.52;7.15;;;15.80;99.90;;;;;;5059211;28;20045;-67
2021/08/23 00:10:21;;;;;;;10.43;5.68;;;15.80;99.90;;;;;;5073931;28;20037;-67
2021/08/23 00:12:47;;;;;;;9.98;7.47;;;15.80;99.90;;;;;;5074150;28;20048;-66
2021/08/23 00:15:15;;;;;;;7.55;6.20;;;15.80;99.90;;;;;;5070663;28;20041;-66
2021/08/23 00:17:41;;;;;;;11.10;8.10;;;15.80;99.90;;;;;;5063527;28;20045;-66
2021/08/23 00:20:10;;;;;;;14.85;7.57;;;15.80;99.90;;;;;;5076061;28;20127;-66
2021/08/23 00:22:47;;;;;;;15.73;7.97;;;15.80;99.90;;;;;;5061663;28;20131;-66
2021/08/23 00:25:16;;;;;;;12.75;8.20;;;15.70;99.90;;;;;;5065410;28;20052;-66
2021/08/23 00:27:42;;;;;;;10.55;7.00;;;15.70;99.90;;;;;;5060167;28;20045;-67
2021/08/23 00:30:10;;;;;;;13.70;8.68;;;15.70;99.90;;;;;;5058099;28;20093;-66
2021/08/23 00:32:36;;;;;;;10.93;6.70;;;15.70;99.90;;;;;;5058391;28;20045;-66
2021/08/23 00:35:02;;;;;;;10.40;6.05;;;15.70;99.90;;;;;;5063922;28;20052;-66
2021/08/23 00:37:27;;;;;;;15.23;7.00;;;15.70;99.90;;;;;;5049000;28;20045;-66
2021/08/23 00:39:53;;;;;;;12.32;7.15;;;15.70;99.90;;;;;;5060438;28;20055;-66
2021/08/23 00:42:19;;;;;;;11.45;5.78;;;15.70;99.90;;;;;;5056232;28;20041;-67
2021/08/23 00:44:45;;;;;;;11.95;7.00;;;15.70;99.90;;;;;;5063621;28;20045;-67
2021/08/23 00:47:12;;;;;;;9.07;5.82;;;15.60;99.90;;;;;;5055613;28;20037;-67
2021/08/23 00:49:38;;;;;;;14.38;6.45;;;15.60;99.90;;;;;;5062537;28;20044;-66
2021/08/23 00:52:05;;;;;;;16.45;5.60;;;15.60;99.90;;;;;;5054151;28;20041;-66
2021/08/23 00:54:31;;;;;;;10.63;5.97;;;15.60;99.90;;;;;;5053585;28;20049;-67
2021/08/23 00:56:58;;;;;;;14.85;7.07;;;15.60;99.90;;;;;;5055825;28;20050;-66
2021/08/23 00:59:26;;;;;;;;;;;15.60;99.90;;;;;;5059674;28;20074;-66
2021/08/23 01:02:01;;;;;;;11.45;6.35;;;15.50;99.90;;;;;;5056723;28;19921;-66
2021/08/23 01:04:49;;;;;;;11.07;6.53;;;15.50;99.90;;;;;;5057063;28;20098;-66
2021/08/23 01:07:17;;;;;;;10.55;6.47;;;15.50;99.90;;;;;;5065420;28;20045;-66
2021/08/23 01:09:49;;;;;;;12.15;6.38;;;15.40;99.90;;;;;;5058625;28;20041;-66
2021/08/23 01:12:15;;;;;;;13.93;6.95;;;15.40;99.90;;;;;;5066831;28;20488;-66
2021/08/23 01:14:42;;;;;;;12.57;6.13;;;15.40;99.90;;;;;;5057670;28;20056;-66
2021/08/23 01:17:08;;;;;;;19.07;6.63;;;15.30;99.90;;;;;;5064331;28;20547;-66
2021/08/23 01:19:36;;;;;;;18.38;9.85;;;15.30;99.90;;;;;;5056968;28;20304;-66
2021/08/23 01:22:04;;;;;;;11.43;6.43;;;15.30;99.90;;;;;;5062834;28;20048;-66
2021/08/23 01:24:34;;;;;;;13.48;6.63;;;15.20;99.90;;;;;;5056593;28;20505;-66
2021/08/23 01:27:03;;;;;;;13.60;6.13;;;15.20;99.90;;;;;;5062771;28;20037;-66
2021/08/23 01:29:38;;;;;;;13.40;6.40;;;15.10;99.90;;;;;;5055817;28;20083;-66
2021/08/23 01:32:26;;;;;;;21.55;7.63;;;15.10;99.90;;;;;;5068836;28;20045;-66
2021/08/23 01:34:53;;;;;;;9.75;6.30;;;15.10;99.90;;;;;;5053519;28;20536;-66
2021/08/23 01:37:23;;;;;;;16.27;6.60;;;15.00;99.90;;;;;;5059874;28;20041;-67
2021/08/23 01:39:50;;;;;;;17.25;8.15;;;15.00;99.90;;;;;;5053414;28;20082;-67
2021/08/23 01:42:16;;;;;;;16.15;7.63;;;14.90;99.90;;;;;;5059676;28;20467;-66
2021/08/23 01:44:43;;;;;;;15.45;8.50;;;14.90;99.90;;;;;;5054891;28;20052;-66
2021/08/23 01:47:09;;;;;;;11.52;6.70;;;14.90;99.90;;;;;;5056771;28;20103;-66
2021/08/23 01:49:36;;;;;;;12.57;7.28;;;14.90;99.90;;;;;;5065718;28;20170;-66
2021/08/23 01:52:02;;;;;;;13.90;6.38;;;14.90;99.90;;;;;;5056023;28;20045;-66
2021/08/23 01:54:29;;;;;;;13.60;7.20;;;14.90;99.90;;;;;;5064979;28;20053;-66
2021/08/23 01:56:55;;;;;;;13.57;7.65;;;14.90;99.90;;;;;;5056809;28;20052;-66
2021/08/23 01:59:23;;;;;;;52.08;21.23;;;14.90;99.90;;;;;;5064373;28;20041;-66
2021/08/23 02:01:49;;;;;;;10.85;6.35;;;14.90;99.90;;;;;;5057641;28;20057;-66
2021/08/23 02:04:15;;;;;;;13.45;6.85;;;14.90;99.90;;;;;;5061938;28;20051;-66
2021/08/23 02:06:40;;;;;;;17.92;7.55;;;14.90;99.90;;;;;;5058704;28;20041;-66
2021/08/23 02:09:07;;;;;;;15.10;6.95;;;14.90;99.90;;;;;;5059085;28;20144;-67
2021/08/23 02:11:33;;;;;;;15.60;6.50;;;15.00;99.90;;;;;;5059782;28;20084;-66
2021/08/23 02:13:59;;;;;;;21.33;8.00;;;15.00;99.90;;;;;;5056346;28;20042;-66
2021/08/23 02:16:24;;;;;;;61.28;22.55;;;15.00;99.90;;;;;;5060992;28;20046;-66
2021/08/23 02:18:50;;;;;;;31.40;14.77;;;14.90;99.90;;;;;;5054810;28;20042;-67
2021/08/23 02:21:19;;;;;;;21.42;9.65;;;14.90;99.90;;;;;;5060980;28;20111;-67
2021/08/23 02:23:47;;;;;;;19.20;8.95;;;14.90;99.90;;;;;;5053789;28;20071;-66
2021/08/23 02:26:13;;;;;;;18.08;10.23;;;14.90;99.90;;;;;;5060162;28;20045;-67
2021/08/23 02:28:43;;;;;;;13.32;7.65;;;14.90;99.90;;;;;;5053226;28;20068;-66
2021/08/23 02:31:08;;;;;;;11.85;7.28;;;14.90;99.90;;;;;;5059399;28;20041;-66
2021/08/23 02:33:34;;;;;;;16.27;7.30;;;14.90;99.90;;;;;;5052514;28;20045;-67
2021/08/23 02:36:00;;;;;;;13.30;7.40;;;15.00;99.90;;;;;;5054791;28;20047;-67
2021/08/23 02:38:26;;;;;;;23.85;9.88;;;15.00;99.90;;;;;;5061582;28;20049;-67
2021/08/23 02:40:52;;;;;;;12.52;6.97;;;15.10;99.90;;;;;;5053562;28;20052;-67
2021/08/23 02:43:18;;;;;;;16.80;7.88;;;15.10;99.90;;;;;;5060282;28;20041;-67
2021/08/23 02:45:44;;;;;;;17.30;6.45;;;15.00;99.90;;;;;;5060514;28;20306;-66
2021/08/23 02:48:09;;;;;;;36.70;9.30;;;15.10;99.90;;;;;;5059557;28;20049;-66
2021/08/23 02:50:35;;;;;;;13.63;6.13;;;15.10;99.90;;;;;;5051650;28;20041;-66
2021/08/23 02:53:01;;;;;;;16.75;6.18;;;15.20;99.90;;;;;;5058421;28;20159;-67
2021/08/23 02:55:27;;;;;;;8.98;5.20;;;15.10;99.90;;;;;;5051225;28;20144;-67
2021/08/23 02:57:53;;;;;;;12.40;5.65;;;15.20;99.90;;;;;;5058042;28;20477;-66
2021/08/23 03:00:19;;;;;;;8.27;4.80;;;15.20;99.90;;;;;;5050489;28;20064;-66
2021/08/23 03:02:45;;;;;;;18.80;6.45;;;15.20;99.90;;;;;;5057214;28;20051;-66
2021/08/23 03:05:10;;;;;;;7.95;5.07;;;15.20;99.90;;;;;;5063013;28;20048;-67
2021/08/23 03:07:36;;;;;;;12.93;5.68;;;15.20;99.90;;;;;;5055915;28;20052;-67
2021/08/23 03:10:04;;;;;;;12.20;4.55;;;15.10;99.90;;;;;;5063411;28;20075;-66
2021/08/23 03:12:29;;;;;;;8.00;3.90;;;15.20;99.90;;;;;;5055172;28;20071;-67
2021/08/23 03:14:55;;;;;;;13.05;5.85;;;15.10;99.90;;;;;;5062322;28;20068;-66
2021/08/23 03:17:21;;;;;;;12.25;4.05;;;15.10;99.90;;;;;;5054919;28;20049;-66
2021/08/23 03:19:50;;;;;;;16.38;5.65;;;15.10;99.90;;;;;;5061260;28;20049;-66
2021/08/23 03:22:16;;;;;;;10.85;4.05;;;15.10;99.90;;;;;;5053917;28;20049;-66
2021/08/23 03:24:42;;;;;;;8.48;4.68;;;15.10;99.90;;;;;;5059900;28;20100;-66
2021/08/23 03:27:09;;;;;;;7.43;3.95;;;15.00;99.90;;;;;;5055630;28;20046;-66
2021/08/23 03:29:34;;;;;;;11.23;5.15;;;15.00;99.90;;;;;;5057038;28;20044;-66
2021/08/23 03:32:00;;;;;;;9.00;4.05;;;14.90;99.90;;;;;;5056808;28;20053;-66
2021/08/23 03:34:26;;;;;;;9.60;4.88;;;14.90;99.90;;;;;;5055583;28;20045;-67
2021/08/23 03:36:52;;;;;;;12.05;4.15;;;14.90;99.90;;;;;;5061385;28;20044;-66
2021/08/23 03:39:17;;;;;;;10.63;6.20;;;14.80;99.90;;;;;;5059241;28;20546;-66
2021/08/23 03:41:44;;;;;;;9.85;4.07;;;14.80;99.90;;;;;;5056244;28;20061;-66
2021/08/23 03:44:10;;;;;;;9.45;4.50;;;14.70;99.90;;;;;;5060303;28;20068;-66
2021/08/23 03:46:35;;;;;;;9.48;4.80;;;14.70;99.90;;;;;;5054369;28;20044;-66
2021/08/23 03:49:03;;;;;;;7.43;4.40;;;14.60;99.90;;;;;;5061201;28;20196;-66
2021/08/23 03:51:29;;;;;;;7.20;5.05;;;14.60;99.90;;;;;;5052951;28;20059;-66
2021/08/23 03:53:55;;;;;;;10.70;4.63;;;14.50;99.90;;;;;;5059789;28;20041;-66
2021/08/23 03:56:21;;;;;;;15.48;6.22;;;14.50;99.90;;;;;;5052553;28;20492;-67
2021/08/23 03:58:47;;;;;;;13.20;5.57;;;14.50;99.90;;;;;;5059553;28;20052;-66
2021/08/23 04:01:12;;;;;;;14.82;6.95;;;14.50;99.90;;;;;;5052086;28;20063;-66
2021/08/23 04:03:38;;;;;;;14.18;5.57;;;14.50;99.90;;;;;;5058252;28;20084;-67
2021/08/23 04:06:04;;;;;;;12.18;5.40;;;14.50;99.90;;;;;;5049808;28;20477;-67
2021/08/23 04:08:32;;;;;;;10.70;5.80;;;14.50;99.90;;;;;;5057128;28;20033;-66
2021/08/23 04:10:58;;;;;;;9.90;5.05;;;14.40;99.90;;;;;;5049765;28;20450;-67
2021/08/23 04:13:24;;;;;;;13.90;5.70;;;14.50;99.90;;;;;;5056798;28;20041;-67
2021/08/23 04:15:50;;;;;;;9.75;6.00;;;14.40;99.90;;;;;;5064106;28;20410;-66
2021/08/23 04:18:15;;;;;;;14.10;5.88;;;14.40;99.90;;;;;;5060019;28;20292;-66
2021/08/23 04:20:41;;;;;;;22.45;8.50;;;14.30;99.90;;;;;;5065999;28;20102;-67
2021/08/23 04:23:07;;;;;;;18.50;6.38;;;14.30;99.90;;;;;;5058782;28;20492;-68
2021/08/23 04:25:33;;;;;;;11.13;5.70;;;14.30;99.90;;;;;;5066940;28;20055;-67
2021/08/23 04:27:59;;;;;;;18.20;6.18;;;14.40;99.90;;;;;;5058430;28;20068;-67
2021/08/23 04:30:25;;;;;;;14.40;5.38;;;14.40;99.90;;;;;;5065035;28;20041;-67
2021/08/23 04:32:52;;;;;;;13.07;6.47;;;14.40;99.90;;;;;;5057391;28;20045;-67
2021/08/23 04:35:18;;;;;;;12.02;5.45;;;14.30;99.90;;;;;;5059426;28;20048;-67
2021/08/23 04:37:44;;;;;;;10.90;5.80;;;14.40;99.90;;;;;;5082347;28;20512;-66
2021/08/23 04:40:10;;;;;;;17.42;5.13;;;14.40;99.90;;;;;;5059647;28;20076;-66
2021/08/23 04:42:36;;;;;;;13.40;4.93;;;14.40;99.90;;;;;;5066421;28;20053;-66
2021/08/23 04:45:02;;;;;;;15.02;4.97;;;14.40;99.90;;;;;;5058697;28;20055;-66
2021/08/23 04:47:28;;;;;;;14.32;5.10;;;14.40;99.90;;;;;;5060017;28;20049;-66
2021/08/23 04:49:54;;;;;;;13.35;5.10;;;14.50;99.90;;;;;;5059195;28;20052;-66
2021/08/23 04:52:20;;;;;;;10.25;5.15;;;14.40;99.90;;;;;;5062839;28;20500;-66
2021/08/23 04:54:46;;;;;;;8.55;5.40;;;14.40;99.90;;;;;;5060669;28;20042;-66
2021/08/23 04:57:11;;;;;;;7.85;4.72;;;14.40;99.90;;;;;;5060153;28;20041;-66
2021/08/23 04:59:37;;;;;;;18.17;5.10;;;14.40;99.90;;;;;;5061989;28;20068;-67
2021/08/23 05:02:03;;;;;;;12.32;4.68;;;14.40;99.90;;;;;;5057356;28;20053;-67
2021/08/23 05:04:29;;;;;;;10.93;4.78;;;14.40;99.90;;;;;;5063385;28;20046;-67
2021/08/23 05:06:54;;;;;;;14.73;4.85;;;14.50;99.90;;;;;;5055594;28;20055;-68
2021/08/23 05:09:20;;;;;;;7.65;4.72;;;14.50;99.90;;;;;;5062843;28;20059;-67
2021/08/23 05:11:46;;;;;;;10.65;5.18;;;14.50;99.90;;;;;;5055417;28;20045;-66
2021/08/23 05:14:12;;;;;;;9.90;4.20;;;14.50;99.90;;;;;;5061865;28;20041;-67
2021/08/23 05:16:38;;;;;;;9.60;5.07;;;14.60;99.90;;;;;;5054642;28;20088;-66
2021/08/23 05:19:03;;;;;;;11.13;5.47;;;14.50;99.90;;;;;;5061111;28;20210;-66
2021/08/23 05:21:29;;;;;;;12.98;4.75;;;14.50;99.90;;;;;;5053251;28;20112;-66
2021/08/23 05:23:55;;;;;;;8.68;4.78;;;14.60;99.90;;;;;;5059504;28;20096;-67
2021/08/23 05:26:21;;;;;;;12.80;4.97;;;14.70;99.90;;;;;;5052495;28;20095;-67
2021/08/23 05:28:47;;;;;;;10.88;4.97;;;14.80;99.90;;;;;;5059087;28;20048;-67
2021/08/23 05:31:13;;;;;;;14.73;4.95;;;14.90;99.90;;;;;;5065343;28;20417;-66
2021/08/23 05:33:39;;;;;;;10.57;4.97;;;14.90;99.90;;;;;;5057868;28;20113;-67
2021/08/23 05:36:04;;;;;;;12.25;4.40;;;14.90;99.90;;;;;;5060030;28;20045;-67
2021/08/23 05:38:31;;;;;;;10.70;4.88;;;15.10;99.90;;;;;;5053158;28;20068;-67
2021/08/23 05:40:56;;;;;;;11.43;4.85;;;15.10;99.90;;;;;;5060266;28;20049;-67
2021/08/23 05:43:22;;;;;;;15.27;5.28;;;15.20;99.90;;;;;;5052852;28;20425;-67
2021/08/23 05:45:48;;;;;;;9.15;4.95;;;15.20;99.90;;;;;;5059276;28;20053;-67
2021/08/23 05:48:16;;;;;;;9.57;5.00;;;15.30;99.90;;;;;;5053534;28;20639;-67
2021/08/23 05:50:42;;;;;;;;;;;15.30;99.90;;;;;;5057465;28;20049;-67
2021/08/23 05:53:07;;;;;;;13.75;4.88;;;15.40;99.90;;;;;;5064953;28;19921;-67
2021/08/23 05:55:33;;;;;;;14.32;4.85;;;15.40;99.90;;;;;;5057632;28;20041;-67
2021/08/23 05:57:59;;;;;;;28.52;5.20;;;15.50;99.90;;;;;;5064267;28;20068;-68
2021/08/23 06:00:25;;;;;;;9.70;4.78;;;15.60;99.90;;;;;;5056584;28;20049;-67
2021/08/23 06:02:51;;;;;;;9.75;4.55;;;15.60;99.90;;;;;;5063511;28;20041;-67
2021/08/23 06:05:16;;;;;;;8.75;4.57;;;15.70;99.90;;;;;;5056274;28;20041;-67
2021/08/23 06:07:42;;;;;;;13.15;4.75;;;15.70;99.90;;;;;;5061977;28;20075;-67
2021/08/23 06:10:12;;;;;;;12.30;4.00;;;15.80;99.90;;;;;;5058154;28;20037;-67
2021/08/23 06:12:38;;;;;;;10.35;3.85;;;15.80;99.90;;;;;;5059579;28;20037;-67
2021/08/23 06:15:04;;;;;;;6.43;3.92;;;15.90;99.90;;;;;;5058865;28;20113;-67
2021/08/23 06:17:30;;;;;;;13.27;4.35;;;16.00;99.90;;;;;;5056952;28;20052;-68
2021/08/23 06:19:56;;;;;;;9.27;3.88;;;16.10;99.90;;;;;;5060145;28;20041;-68
2021/08/23 06:22:21;;;;;;;14.15;3.88;;;16.20;99.90;;;;;;5053563;28;20064;-67
2021/08/23 06:24:50;;;;;;;9.43;3.33;;;16.30;99.90;;;;;;5061038;28;20056;-67
2021/08/23 06:27:16;;;;;;;11.45;3.42;;;16.40;99.90;;;;;;5053498;28;20041;-67
2021/08/23 06:29:42;;;;;;;5.05;3.08;;;16.50;99.90;;;;;;5075479;28;20122;-67
2021/08/23 06:32:08;;;;;;;10.90;3.53;;;16.60;99.90;;;;;;5052982;28;20049;-67
2021/08/23 06:34:33;;;;;;;8.02;3.28;;;16.70;99.90;;;;;;5059160;28;20526;-67
2021/08/23 06:36:59;;;;;;;10.70;3.50;;;16.70;99.90;;;;;;5061481;28;20104;-67
2021/08/23 06:39:25;;;;;;;7.75;3.60;;;16.70;99.90;;;;;;5054291;28;20045;-67
2021/08/23 06:41:51;;;;;;;6.88;2.88;;;16.70;99.90;;;;;;5061156;28;20096;-67
2021/08/23 06:44:19;;;;;;;13.05;3.38;;;16.60;99.90;;;;;;5065330;28;20073;-67
2021/08/23 06:46:46;;;;;;;6.65;2.67;;;16.70;99.90;;;;;;5060128;28;20041;-67
2021/08/23 06:49:11;;;;;;;9.20;3.53;;;16.70;99.90;;;;;;5052249;28;20041;-67
2021/08/23 06:51:37;;;;;;;6.78;3.15;;;16.80;99.90;;;;;;5058381;28;20067;-67
2021/08/23 06:54:03;;;;;;;5.72;2.42;;;16.80;99.90;;;;;;5051139;28;20045;-67
2021/08/23 06:56:29;;;;;;;7.43;2.42;;;17.00;99.90;;;;;;5057992;28;20078;-66
2021/08/23 06:58:56;;;;;;;5.28;2.10;;;17.10;99.90;;;;;;5051323;28;20076;-67
2021/08/23 07:01:26;;;;;;;5.20;2.20;;;17.20;99.90;;;;;;5057021;28;20053;-67
2021/08/23 07:03:52;;;;;;;4.53;1.88;;;17.10;99.90;;;;;;5063858;28;20045;-68
2021/08/23 07:06:18;;;;;;;4.95;1.80;;;17.10;99.90;;;;;;5071375;28;20041;-68
2021/08/23 07:08:44;;;;;;;8.90;2.03;;;17.10;99.90;;;;;;5062989;28;20130;-68
2021/08/23 07:11:11;;;;;;;4.30;2.17;;;17.10;99.90;;;;;;5055900;28;20037;-67
2021/08/23 07:13:37;;;;;;;10.32;2.42;;;17.10;99.90;;;;;;5062433;28;20124;-67
2021/08/23 07:16:05;;;;;;;3.22;1.60;;;17.10;99.90;;;;;;5054811;28;20051;-66
2021/08/23 07:18:32;;;;;;;9.43;2.85;;;17.20;99.90;;;;;;5061576;28;20049;-67
2021/08/23 07:20:59;;;;;;;;;;;17.20;99.90;;;;;;5053837;28;20501;-67
2021/08/23 07:23:44;;;;;;;4.25;1.50;;;17.30;99.90;;;;;;5061012;28;19927;-67
2021/08/23 07:26:30;;;;;;;6.03;2.20;;;17.50;99.90;;;;;;5066450;28;20404;-68
2021/08/23 07:28:56;;;;;;;6.43;2.03;;;17.70;99.90;;;;;;5059893;28;20048;-67
2021/08/23 07:31:22;;;;;;;7.10;2.08;;;17.70;99.90;;;;;;5052349;28;20096;-67
2021/08/23 07:33:49;;;;;;;5.93;1.73;;;17.80;99.90;;;;;;5059153;28;20049;-67
2021/08/23 07:36:14;;;;;;;7.50;2.05;;;17.90;99.90;;;;;;5061454;28;20057;-67
2021/08/23 07:38:47;;;;;;;7.18;2.33;;;18.10;99.90;;;;;;5054562;28;20070;-67
2021/08/23 07:41:12;;;;;;;6.72;2.10;;;18.10;99.90;;;;;;5061423;28;20049;-67
2021/08/23 07:43:42;;;;;;;7.45;1.85;;;18.20;99.90;;;;;;5054134;28;20041;-67
2021/08/23 07:46:09;;;;;;;7.68;1.58;;;18.30;99.90;;;;;;5060446;28;20077;-66
2021/08/23 07:48:35;;;;;;;9.40;2.15;;;18.30;99.90;;;;;;5053413;28;20048;-67
2021/08/23 07:51:01;;;;;;;5.22;2.13;;;18.30;99.90;;;;;;5058419;28;20048;-67
2021/08/23 07:53:27;;;;;;;8.55;1.90;;;18.50;99.90;;;;;;5052658;28;20176;-66
2021/08/23 07:55:53;;;;;;;6.15;2.10;;;18.50;99.90;;;;;;5058824;28;20048;-67
2021/08/23 07:58:20;;;;;;;7.38;2.15;;;18.60;99.90;;;;;;5053899;28;20559;-66
2021/08/23 08:00:47;;;;;;;;;;;18.70;99.90;;;;;;5060652;28;20073;-67
2021/08/23 08:03:12;;;;;;;3.15;1.48;;;18.80;99.90;;;;;;5054582;28;19928;-66
2021/08/23 08:05:38;;;;;;;4.50;1.77;;;18.70;99.90;;;;;;5053277;28;20046;-67
2021/08/23 08:08:06;;;;;;;5.18;1.35;;;18.70;99.90;;;;;;5055860;28;20068;-66
2021/08/23 08:10:33;;;;;;;3.85;1.90;;;18.60;99.90;;;;;;5050921;28;20501;-66
2021/08/23 08:13:06;;;;;;;4.70;1.50;;;18.70;99.90;;;;;;5056320;28;20195;-66
2021/08/23 08:15:34;;;;;;;6.00;2.03;;;18.80;99.90;;;;;;5049851;28;20500;-66
2021/08/23 08:18:00;;;;;;;5.70;1.60;;;18.90;99.90;;;;;;5062498;28;20044;-66
2021/08/23 08:20:26;;;;;;;4.55;1.60;;;18.80;99.90;;;;;;5057104;28;20098;-67
2021/08/23 08:22:52;;;;;;;5.00;1.40;;;18.80;99.90;;;;;;5059596;28;20041;-66
2021/08/23 08:25:18;;;;;;;3.45;1.60;;;18.80;99.90;;;;;;5058280;28;20104;-67
2021/08/23 08:27:46;;;;;;;8.15;1.83;;;18.90;99.90;;;;;;5057154;28;20433;-66
2021/08/23 08:30:16;;;;;;;4.47;1.70;;;18.80;99.90;;;;;;5059137;28;20053;-67
2021/08/23 08:32:45;;;;;;;4.53;1.30;;;19.00;99.90;;;;;;5054789;28;20054;-67
2021/08/23 08:35:12;;;;;;;4.00;1.35;;;19.10;99.90;;;;;;5062234;28;20068;-67
2021/08/23 08:37:38;;;;;;;3.30;1.30;;;19.00;99.90;;;;;;5060026;28;20038;-66
2021/08/23 08:40:05;;;;;;;1.98;0.63;;;19.10;99.90;;;;;;5057993;28;20083;-67
2021/08/23 08:42:39;;;;;;;2.72;0.93;;;18.90;99.90;;;;;;5059961;28;20043;-67
2021/08/23 08:45:05;;;;;;;3.22;1.13;;;18.70;99.90;;;;;;5056546;28;20116;-67
2021/08/23 08:47:33;;;;;;;3.97;1.55;;;18.70;99.90;;;;;;5061333;28;20040;-68
2021/08/23 08:49:59;;;;;;;;;;;18.90;99.90;;;;;;5055666;28;20044;-66
2021/08/23 08:52:26;;;;;;;3.97;1.33;;;18.90;99.90;;;;;;5060678;28;19963;-67
2021/08/23 08:54:52;;;;;;;1.90;0.90;;;18.90;99.90;;;;;;5054247;28;20096;-67
2021/08/23 08:57:18;;;;;;;4.63;1.13;;;19.00;99.90;;;;;;5060519;28;20504;-66
2021/08/23 08:59:44;;;;;;;2.00;1.00;;;19.10;99.90;;;;;;5054254;28;20131;-66
2021/08/23 09:02:10;;;;;;;2.95;1.33;;;19.30;99.90;;;;;;5059380;28;20733;-67
2021/08/23 09:04:38;;;;;;;4.75;1.50;;;19.30;99.90;;;;;;5055004;28;20041;-67
2021/08/23 09:07:07;;;;;;;1.60;0.98;;;19.40;99.90;;;;;;5061669;28;20451;-66
2021/08/23 09:09:34;;;;;;;2.03;0.90;;;19.60;99.90;;;;;;5054680;28;20097;-67
2021/08/23 09:12:06;;;;;;;3.42;0.90;;;19.60;99.90;;;;;;5061305;28;20045;-67
2021/08/23 09:14:36;;;;;;;5.22;1.35;;;19.50;99.90;;;;;;5069430;28;20053;-67
2021/08/23 09:17:09;;;;;;;3.83;1.45;;;19.50;99.90;;;;;;5060644;28;20041;-66
2021/08/23 09:19:43;;;;;;;3.42;1.20;;;19.50;99.90;;;;;;5053167;28;20060;-67
2021/08/23 09:22:12;;;;;;;4.32;1.02;;;19.70;99.90;;;;;;5059332;28;20067;-66
2021/08/23 09:24:41;;;;;;;4.95;1.50;;;19.80;99.90;;;;;;5057669;28;20073;-66
2021/08/23 09:27:32;;;;;;;3.75;1.23;;;19.60;99.90;;;;;;5072598;28;20078;-66
2021/08/23 09:30:02;;;;;;;1.75;0.82;;;19.60;99.90;;;;;;5052323;28;20105;-67
2021/08/23 09:32:35;;;;;;;2.80;1.00;;;19.60;99.90;;;;;;5056337;28;20151;-66
2021/08/23 09:35:23;;;;;;;2.78;0.98;;;19.60;99.90;;;;;;5061031;28;20045;-66
2021/08/23 09:37:50;;;;;;;2.65;0.80;;;19.80;99.90;;;;;;5054286;28;20057;-67
2021/08/23 09:40:28;;;;;;;1.80;1.05;;;19.80;99.90;;;;;;5060596;28;20045;-66
2021/08/23 09:43:12;;;;;;;3.28;1.10;;;19.80;99.90;;;;;;5053523;28;20048;-66
2021/08/23 09:45:44;;;;;;;2.03;1.00;;;19.60;99.90;;;;;;5060137;28;20045;-66
2021/08/23 09:48:10;;;;;;;2.20;1.10;;;19.50;99.90;;;;;;5052887;28;20059;-66
2021/08/23 09:50:53;;;;;;;1.30;0.90;;;19.60;99.90;;;;;;5062899;28;20040;-66
2021/08/23 09:53:20;;;;;;;1.77;1.20;;;19.70;99.90;;;;;;5059001;28;20087;-67
2021/08/23 09:55:51;;;;;;;1.60;1.08;;;19.60;99.90;;;;;;5062970;28;20108;-66
2021/08/23 09:58:17;;;;;;;2.85;1.23;;;19.60;99.90;;;;;;5059436;28;20041;-65
2021/08/23 10:00:43;;;;;;;3.30;1.40;;;19.80;99.90;;;;;;5060696;28;20057;-66
2021/08/23 10:03:16;;;;;;;1.50;0.90;;;19.80;99.90;;;;;;5057415;28;20050;-66
2021/08/23 10:05:44;;;;;;;4.30;1.30;;;19.90;99.90;;;;;;5058637;28;20049;-66
2021/08/23 10:08:16;;;;;;;2.70;1.02;;;20.00;99.90;;;;;;5060355;28;20041;-66
2021/08/23 10:10:43;;;;;;;2.78;1.10;;;20.00;99.90;;;;;;5056108;28;20509;-65
2021/08/23 10:13:10;;;;;;;2.30;1.10;;;20.10;99.90;;;;;;5060556;28;20551;-66
2021/08/23 10:15:39;;;;;;;2.27;1.10;;;20.20;99.90;;;;;;5060884;28;20045;-66
2021/08/23 10:18:06;;;;;;;4.32;1.50;;;20.10;99.90;;;;;;5061398;28;20406;-65
2021/08/23 10:20:33;;;;;;;2.40;0.88;;;19.90;99.90;;;;;;5053908;28;20045;-66
2021/08/23 10:23:01;;;;;;;2.17;1.15;;;20.00;99.90;;;;;;5060636;28;20103;-65
2021/08/23 10:25:27;;;;;;;3.15;1.20;;;20.00;99.90;;;;;;5053428;28;20056;-66
2021/08/23 10:28:04;;;;;;;1.77;1.15;;;20.40;99.90;;;;;;5060068;28;20044;-66
2021/08/23 10:30:31;;;;;;;1.42;1.00;;;20.60;99.90;;;;;;5052593;28;20052;-66
2021/08/23 10:33:07;;;;;;;2.08;1.38;;;20.40;99.90;;;;;;5057940;28;20136;-65
2021/08/23 10:35:45;;;;;;;3.15;1.25;;;20.20;99.90;;;;;;5047628;28;20046;-65
2021/08/23 10:38:16;;;;;;;4.13;1.23;;;20.10;99.90;;;;;;5054621;28;20037;-64
2021/08/23 10:40:41;;;;;;;3.03;1.33;;;20.10;99.90;;;;;;5060426;28;20038;-66
2021/08/23 10:43:23;;;;;;;2.28;1.20;;;20.30;99.90;;;;;;5053939;28;20047;-65
2021/08/23 10:45:50;;;;;;;2.80;1.20;;;20.20;99.90;;;;;;5046406;28;20191;-65
2021/08/23 10:48:18;;;;;;;3.38;1.20;;;20.40;99.90;;;;;;5053500;28;20362;-66
2021/08/23 10:51:00;;;;;;;5.35;1.50;;;20.50;99.90;;;;;;5059022;28;20041;-66
2021/08/23 10:53:37;;;;;;;2.30;1.20;;;20.50;99.90;;;;;;5052156;28;20101;-65
2021/08/23 10:56:17;;;;;;;5.03;1.60;;;20.70;99.90;;;;;;5045452;28;20041;-65
2021/08/23 10:58:45;;;;;;;2.80;1.30;;;20.90;99.90;;;;;;5052588;28;20053;-66
2021/08/23 11:01:22;;;;;;;2.38;1.27;;;20.80;99.90;;;;;;5063864;28;20105;-65
2021/08/23 11:04:06;;;;;;;3.80;1.20;;;20.90;99.90;;;;;;5056641;28;20104;-65
2021/08/23 11:06:35;;;;;;;5.32;1.55;;;20.90;99.90;;;;;;5062799;28;20135;-65
2021/08/23 11:09:05;;;;;;;3.92;1.15;;;21.10;99.90;;;;;;5055588;28;20045;-65
2021/08/23 11:11:36;;;;;;;2.40;1.25;;;21.30;99.90;;;;;;5059187;28;20045;-65
2021/08/23 11:14:02;;;;;;;1.75;1.00;;;21.10;99.90;;;;;;5054744;28;20045;-64
2021/08/23 11:16:28;;;;;;;2.88;1.30;;;21.10;99.90;;;;;;5061444;28;20656;-64
2021/08/23 11:18:54;;;;;;;5.68;1.30;;;21.30;99.90;;;;;;5054995;28;20068;-64
2021/08/23 11:21:24;;;;;;;2.13;1.30;;;21.10;99.90;;;;;;5059784;28;20047;-65
2021/08/23 11:23:50;;;;;;;1.92;0.90;;;21.10;99.90;;;;;;5055479;28;20052;-64
2021/08/23 11:26:24;;;;;;;3.22;1.10;;;21.20;99.90;;;;;;5057298;28;20556;-65
2021/08/23 11:28:51;;;;;;;3.88;1.40;;;21.30;99.90;;;;;;5055471;28;20045;-64
2021/08/23 11:31:25;;;;;;;3.35;1.00;;;21.60;99.90;;;;;;5056138;28;20076;-63
2021/08/23 11:33:50;;;;;;;5.57;1.40;;;21.40;99.90;;;;;;5060066;28;20045;-63
2021/08/23 11:36:19;;;;;;;4.20;1.50;;;21.40;99.90;;;;;;5055474;28;20041;-63
2021/08/23 11:38:46;;;;;;;5.85;1.55;;;21.40;99.90;;;;;;5059783;28;20128;-63
2021/08/23 11:41:14;;;;;;;4.30;1.20;;;21.50;99.90;;;;;;5056604;28;20041;-63
2021/08/23 11:43:41;;;;;;;5.35;1.00;;;21.60;99.90;;;;;;5057820;28;20037;-63
2021/08/23 11:46:07;;;;;;;3.40;1.13;;;22.20;99.90;;;;;;5057637;28;20048;-63
2021/08/23 11:48:34;;;;;;;4.63;1.30;;;;;;;;;;5055085;28;20049;-63
2021/08/23 11:51:00;;;;;;;3.67;1.50;;;23.10;99.90;;;;;;5058239;28;20033;-62
2021/08/23 11:53:30;;;;;;;3.83;1.27;;;23.30;99.90;;;;;;5052798;28;20046;-62
2021/08/23 11:56:07;;;;;;;2.30;1.02;;;23.00;99.90;;;;;;5045551;28;20061;-62
2021/08/23 11:58:38;;;;;;;4.55;1.55;;;23.20;99.90;;;;;;5052293;28;20041;-63
2021/08/23 12:01:07;;;;;;;2.85;1.40;;;23.30;99.90;;;;;;5044872;28;20107;-63
2021/08/23 12:03:33;;;;;;;5.18;1.23;;;22.80;99.90;;;;;;5045190;28;20048;-63
2021/08/23 12:06:10;;;;;;;8.10;1.40;;;23.30;99.90;;;;;;5057521;28;20045;-63
2021/08/23 12:08:38;;;;;;;3.00;1.40;;;23.50;99.90;;;;;;5050641;28;20311;-63
2021/08/23 12:11:09;;;;;;;3.28;1.30;;;23.80;99.90;;;;;;5056983;28;20036;-63
2021/08/23 12:13:40;;;;;;;1.75;1.05;;;23.90;99.90;;;;;;5058531;28;20052;-63
2021/08/23 12:16:17;;;;;;;4.50;1.50;;;23.60;99.90;;;;;;5060740;28;20037;-63
2021/08/23 12:18:50;;;;;;;4.05;1.10;;;23.00;99.90;;;;;;5057406;28;20144;-63
2021/08/23 12:21:26;;;;;;;3.75;1.45;;;23.00;99.90;;;;;;5059726;28;20095;-62
2021/08/23 12:23:58;;;;;;;2.33;1.17;;;23.40;99.90;;;;;;5055850;28;20109;-62
2021/08/23 12:26:37;;;;;;;5.65;2.03;;;23.70;99.90;;;;;;5059427;28;20048;-62
2021/08/23 12:29:25;;;;;;;2.97;1.10;;;23.70;99.90;;;;;;5054491;28;20045;-63
2021/08/23 12:31:58;;;;;;;2.85;1.08;;;23.90;99.90;;;;;;5051063;28;20071;-62
2021/08/23 12:34:28;;;;;;;6.30;1.75;;;23.70;99.90;;;;;;5059804;28;20044;-63
2021/08/23 12:36:56;;;;;;;2.80;1.42;;;23.90;99.90;;;;;;5056548;28;20041;-62
2021/08/23 12:39:22;;;;;;;4.43;1.00;;;24.20;99.90;;;;;;5066212;28;20063;-62
2021/08/23 12:41:51;;;;;;;3.13;1.17;;;24.30;99.90;;;;;;5058745;28;20105;-62
2021/08/23 12:44:18;;;;;;;2.80;1.00;;;24.50;99.90;;;;;;5065471;28;20040;-62
2021/08/23 12:46:44;;;;;;;6.13;1.20;;;24.20;99.90;;;;;;5057733;28;20071;-62